Cedar City Regional Airport
KCDC : now visible

Airfield :











YOU CAN JOIN US ON...

 
LOGIN :

Register | Disclaimer

   EN    FR    IT 

 









Legend :    VFR   Marginal VFR   IFR   Intensive IFR   Very Intensive IFR
Visi :
Ceiling :
>= 8 km
>= 3000ft
5 to 8 km
1000 to 3000 ft
1500m to 5 km
500 to 1000 ft
800 to 1500m
200 to 500 ft
< 800m
< 200 ft
Symbols :   Thunderstorms  Fog  Heavy snow  Heavy precipitations  Wind > 20 kt






- Airport Elevation : 5622 ft
- IATA code : CDC


KCDC - Cedar City Regional

CURRENT METAR :
  • 211453Z AUTO 04012KT 10SM OVC100 06/02 A3009 RMK AO2 SLP161 60000 T00610022 53006

EXPIRED METARs :
  • 211353Z AUTO 02009KT 10SM SCT050 BKN070 OVC090 06/01 A3008 RMK AO2 RAB11E28 SLP146 P0000 T00560011
  • 211253Z AUTO 01008KT 10SM FEW070 BKN080 OVC110 05/02 A3009 RMK AO2 SLP155 T00500017
  • 211153Z AUTO 05003KT 10SM CLR 03/01 A3007 RMK AO2 SLP149 70003 T00330006 10083 20033 53015
  • 211053Z AUTO 35006KT 10SM FEW110 04/02 A3005 RMK AO2 SLP141 T00440017

TAF KCDC
Valid from the 21 at 12:00 until the 22 at 12:00 UTC


211120Z 2112/2212 36008KT P6SM BKN110
FM211800 36011G19KT P6SM SKC
FM220200 03008KT P6SM SKC
FM220600 VRB04KT P6SM SKC
KZLC FIR / North America



MET'MAP, your aeronautical weather chart ! - Copyright ORBIFLY December 2007 - Disclaimer

ORBIFLY MET'MAP TEAM :

Programming & Development : Alexandra Zaïnal
Original concept : Baudouin d'Aumeries
Technical & hardware support : Manuel Goepfert
Assistance : Marc-Olivier Méhu




SOURCES & CREDITS :

   NOAA       Earth
Advisory